Latest Weather Observations for Casino

IDN60801

Issued at 10:35 pm EST Tuesday 29 July 2014 (issued every 30 minutes, with the page automatically refreshed every 10 minutes)

About weather observations | Map of weather stations | Latest weather observations for NSW | Other Formats
Station Details ID: 058208 Name: CASINO AIRPORT AWS Lat: -28.88 Lon: 153.06 Height: 20.9 m
Data from the previous 72 hours. | See also: Recent months at Casino
Date/Time
EST
Temp
°C
App
Temp
°C
Dew
Point
Rel
Hum
%
Delta-T
°C
Wind Press
QNH
hPa
Press
MSL
hPa
Rain
since 9 am
mm
Dir
 
Spd
km/h
Gust
km/h
Spd
kts
Gust
kts
29/10:30pm 8.5 5.4 3.8 72 2.0 W 9 11 5 6 1021.5 - 0.0
29/10:00pm 8.4 5.0 4.0 74 1.9 WNW 11 11 6 6 1021.2 1021.2 0.0
29/09:30pm 7.5 4.3 3.0 73 1.9 WNW 9 11 5 6 1021.2 - 0.0
29/09:00pm 6.3 2.9 2.0 74 1.7 W 9 11 5 6 1020.8 1020.8 0.0
29/08:30pm 5.7 2.7 0.9 71 1.9 SSW 6 7 3 4 1020.5 - 0.0
29/08:00pm 7.9 6.3 2.4 68 2.3 CALM 0 0 0 0 1020.3 1020.3 0.0
29/07:30pm 9.3 7.9 3.3 66 2.6 CALM 0 6 0 3 1019.8 - 0.0
29/07:00pm 10.4 7.6 2.0 56 3.5 SSE 6 7 3 4 1019.4 1019.4 0.0
29/06:30pm 10.8 7.4 2.1 55 3.7 ESE 9 13 5 7 1019.2 - 0.0
29/06:00pm 13.3 10.5 2.2 47 4.8 NNE 6 9 3 5 1018.7 1018.7 0.0
29/05:30pm 15.3 11.8 1.4 39 6.1 NE 9 11 5 6 1018.6 - 0.0
29/05:00pm 17.8 14.1 0.0 30 7.7 ENE 9 9 5 5 1018.5 1018.5 0.0
29/04:30pm 21.0 17.3 0.2 25 9.3 NE 9 11 5 6 1018.6 - 0.0
29/04:00pm 22.2 18.8 -0.5 22 10.1 NNE 7 9 4 5 1018.6 1018.6 0.0
29/03:30pm 22.0 18.1 -1.3 21 10.2 ENE 9 13 5 7 1018.6 - 0.0
29/03:00pm 23.0 19.6 -0.5 21 10.5 NNE 7 15 4 8 1018.8 1018.8 0.0
29/02:30pm 22.5 19.6 -0.9 21 10.4 SSW 4 7 2 4 1019.0 - 0.0
29/02:00pm 22.3 18.5 -1.1 21 10.3 W 9 15 5 8 1019.4 1019.4 0.0
29/01:30pm 22.0 18.3 -0.1 23 9.9 SSW 9 15 5 8 1019.5 - 0.0
29/01:00pm 21.5 17.7 -1.1 22 9.9 W 9 15 5 8 1019.9 1019.9 0.0
29/12:30pm 21.0 17.3 0.2 25 9.3 W 9 13 5 7 1020.3 - 0.0
29/12:00pm 20.6 17.3 -0.1 25 9.1 WNW 7 13 4 7 1020.9 1020.9 0.0
29/11:30am 19.7 16.5 0.7 28 8.5 W 7 13 4 7 1021.6 - 0.0
29/11:00am 20.2 17.2 3.9 34 7.8 NW 9 17 5 9 1022.0 1022.0 0.0
29/10:30am 18.6 15.1 3.3 36 7.1 NW 11 17 6 9 1022.3 - 0.0
29/10:00am 17.0 12.9 2.2 37 6.6 WNW 13 17 7 9 1022.5 1022.5 0.0
29/09:30am 16.0 12.2 3.8 44 5.6 NW 13 17 7 9 1022.6 - 0.0
29/09:00am 13.5 9.8 4.6 55 4.1 NNW 13 17 7 9 1022.6 1022.6 0.0
29/08:30am 11.4 7.4 5.1 65 2.9 NW 15 17 8 9 1022.7 - 0.0
29/08:00am 9.1 6.7 5.1 76 1.8 WNW 7 9 4 5 1022.5 1022.5 0.0
29/07:30am 6.7 2.5 3.7 81 1.3 WNW 15 19 8 10 1022.2 - 0.0
29/07:00am 4.4 0.7 2.4 87 0.8 WNW 11 13 6 7 1022.0 1022.0 0.0
29/06:30am 4.0 0.2 1.5 84 1.0 WNW 11 11 6 6 1021.5 - 0.0
29/06:00am 4.5 1.2 2.5 87 0.8 WNW 9 11 5 6 1021.3 1021.3 0.0
29/05:30am 2.9 -0.6 1.1 88 0.7 WNW 9 11 5 6 1021.1 - 0.0
29/05:00am 1.7 -1.7 -0.4 86 0.8 W 7 11 4 6 1020.8 1020.8 0.0
29/04:30am 1.4 -1.8 -0.4 88 0.6 W 6 7 3 4 1020.7 - 0.0
29/04:00am 1.8 -1.5 -0.1 87 0.7 WSW 7 11 4 6 1020.2 1020.2 0.0
29/03:30am 4.9 2.0 2.6 85 0.9 NW 7 9 4 5 1020.1 - 0.0
29/03:00am 3.8 0.7 1.2 83 1.0 WNW 7 9 4 5 1020.1 1020.1 0.0
29/02:30am 5.6 2.6 2.1 78 1.4 WNW 7 9 4 5 1020.1 - 0.0
29/02:00am 6.5 2.9 3.1 79 1.4 W 11 13 6 7 1020.2 1020.2 0.0
29/01:30am 5.4 2.0 2.1 79 1.3 W 9 11 5 6 1020.3 - 0.0
29/01:00am 7.5 4.4 3.6 76 1.7 WNW 9 13 5 7 1020.5 1020.5 0.0
29/12:30am 8.4 5.0 4.2 75 1.8 WNW 11 15 6 8 1020.7 - 0.0
29/12:00am 8.5 5.2 4.5 76 1.8 WNW 11 13 6 7 1020.8 1020.8 0.0
 
Date/Time
EST
Temp
°C
App
Temp
°C
Dew
Point
Rel
Hum
%
Delta-T
°C
Wind Press
QNH
hPa
Press
MSL
hPa
Rain
since 9 am
mm
Dir
 
Spd
km/h
Gust
km/h
Spd
kts
Gust
kts
28/11:30pm 7.9 4.9 4.1 77 1.6 NW 9 13 5 7 1020.9 - 0.0
28/11:00pm 8.5 5.9 4.3 75 1.8 WNW 7 11 4 6 1021.1 1021.1 0.0
28/10:30pm 10.0 7.0 5.8 75 1.9 WNW 11 13 6 7 1021.2 - 0.0
28/10:00pm 9.1 6.7 5.1 76 1.8 WNW 7 11 4 6 1021.4 1021.4 0.0
28/09:30pm 7.8 4.7 3.7 75 1.8 NW 9 9 5 5 1021.3 - 0.0
28/09:00pm 8.7 6.3 5.3 79 1.5 NW 7 11 4 6 1021.4 1021.4 0.0
28/08:30pm 8.1 5.7 4.5 78 1.6 WNW 6 7 3 4 1021.3 - 0.0
28/08:00pm 10.4 7.8 6.0 74 2.0 W 9 13 5 7 1021.0 1021.0 0.0
28/07:30pm 8.5 6.0 3.8 72 2.0 SSW 6 7 3 4 1020.7 - 0.0
28/07:00pm 12.4 11.5 6.0 65 3.0 CALM 0 0 0 0 1020.2 1020.2 0.0
28/06:30pm 12.9 11.8 5.3 60 3.5 CALM 0 0 0 0 1020.0 - 0.0
28/06:00pm 14.4 13.2 4.4 51 4.6 CALM 0 0 0 0 1019.7 1019.7 0.0
28/05:30pm 15.4 12.8 3.2 44 5.5 N 6 6 3 3 1019.6 - 0.0
28/05:00pm 19.2 16.6 3.4 35 7.4 NNW 6 7 3 4 1019.5 1019.5 0.0
28/04:30pm 22.0 18.8 3.2 29 9.0 NNW 9 13 5 7 1019.3 - 0.0
28/04:00pm 22.7 19.1 2.8 27 9.5 NW 11 15 6 8 1019.2 1019.2 0.0
28/03:30pm 22.7 17.8 2.2 26 9.7 NNW 17 24 9 13 1019.2 - 0.0
28/03:00pm 22.9 18.0 1.8 25 9.9 NNW 17 26 9 14 1019.3 1019.3 0.0
28/02:30pm 23.0 18.7 3.0 27 9.6 WNW 15 26 8 14 1019.6 - 0.0
28/02:00pm 22.8 19.3 3.4 28 9.3 WNW 11 20 6 11 1019.9 1019.9 0.0
28/01:30pm 22.5 18.2 3.1 28 9.3 NW 15 22 8 12 1020.2 - 0.0
28/01:00pm 22.6 17.5 3.2 28 9.3 NW 19 30 10 16 1020.7 1020.7 0.0
28/12:30pm 21.7 18.6 7.2 39 7.5 NNW 13 20 7 11 1021.3 - 0.0
28/12:00pm 21.1 17.3 7.7 42 6.9 NW 17 24 9 13 1022.2 1022.2 0.0
28/11:30am 19.9 17.4 8.3 47 6.0 NNW 11 17 6 9 1022.9 - 0.0
28/11:00am 18.9 15.9 7.7 48 5.7 WNW 13 17 7 9 1023.3 1023.3 0.0
28/10:30am 17.4 15.6 8.0 54 4.8 WNW 7 13 4 7 1023.5 - 0.0
28/10:00am 16.2 13.7 8.4 60 3.9 WNW 11 15 6 8 1023.8 1023.8 0.0
28/09:30am 15.4 13.0 8.6 64 3.5 NNW 11 17 6 9 1023.7 - 0.0
28/09:00am 13.0 10.8 7.9 71 2.5 NNW 9 11 5 6 1024.0 1024.0 0.0
28/08:30am 11.5 9.2 7.4 76 2.0 NW 9 13 5 7 1024.1 - 0.0
28/08:00am 9.4 7.2 6.3 81 1.4 WNW 7 9 4 5 1024.0 1024.0 0.0
28/07:30am 7.2 4.4 5.0 86 1.0 WNW 9 13 5 7 1023.8 - 0.0
28/07:00am 6.2 3.3 4.5 89 0.7 W 9 13 5 7 1023.3 1023.3 0.0
28/06:30am 6.0 2.3 4.3 89 0.7 WNW 13 17 7 9 1022.9 - 0.0
28/06:00am 5.7 2.0 4.2 90 0.6 NW 13 15 7 8 1022.9 1022.9 0.0
28/05:30am 5.7 1.9 4.0 89 0.7 WNW 13 15 7 8 1022.8 - 0.0
28/05:00am 6.3 2.6 4.3 87 0.9 W 13 19 7 10 1022.9 1022.9 0.0
28/04:30am 6.5 3.2 4.8 89 0.7 WNW 11 13 6 7 1022.7 - 0.0
28/04:00am 6.3 3.0 4.6 89 0.7 NW 11 15 6 8 1023.1 1023.1 0.0
28/03:30am 6.3 3.4 4.8 90 0.7 WNW 9 11 5 6 1023.3 - 0.0
28/03:00am 5.5 2.9 4.0 90 0.6 WNW 7 9 4 5 1023.3 1023.3 0.0
28/02:30am 6.1 3.5 4.3 88 0.8 WNW 7 9 4 5 1023.2 - 0.0
28/02:00am 7.0 4.2 5.3 89 0.7 WNW 9 13 5 7 1023.3 1023.3 0.0
28/01:30am 6.9 4.1 5.2 89 0.7 WNW 9 9 5 5 1023.5 - 0.0
28/01:00am 7.3 4.9 5.4 88 0.8 WNW 7 9 4 5 1023.8 1023.8 0.0
28/12:30am 7.7 5.1 6.2 90 0.7 WNW 9 13 5 7 1024.0 - 0.0
28/12:00am 6.3 3.8 4.6 89 0.7 W 7 9 4 5 1023.8 1023.8 0.0
 
Date/Time
EST
Temp
°C
App
Temp
°C
Dew
Point
Rel
Hum
%
Delta-T
°C
Wind Press
QNH
hPa
Press
MSL
hPa
Rain
since 9 am
mm
Dir
 
Spd
km/h
Gust
km/h
Spd
kts
Gust
kts
27/11:30pm 7.9 5.5 6.8 93 0.5 W 9 11 5 6 1024.0 - 0.0
27/11:00pm 5.6 3.0 4.1 90 0.6 W 7 9 4 5 1024.2 1024.2 0.0
27/10:30pm 5.5 4.1 3.3 86 0.9 CALM 0 0 0 0 1024.2 - 0.0
27/10:00pm 7.1 5.3 5.3 88 0.8 W 4 6 2 3 1024.1 1024.1 0.0
27/09:30pm 6.8 4.3 4.8 87 0.9 NW 7 9 4 5 1024.1 - 0.0
27/09:00pm 7.3 5.0 4.9 85 1.0 WSW 6 9 3 5 1024.1 1024.1 0.0
27/08:30pm 8.4 5.8 6.0 85 1.1 SW 9 9 5 5 1024.1 - 0.0
27/08:00pm 9.6 7.6 6.9 83 1.3 SW 7 9 4 5 1023.9 1023.9 0.0
27/07:30pm 10.2 9.4 6.5 78 1.7 CALM 0 0 0 0 1023.6 - 0.0
27/07:00pm 11.4 9.4 7.1 75 2.0 ESE 7 7 4 4 1023.3 1023.3 0.0
27/06:30pm 11.6 9.5 6.7 72 2.3 E 7 9 4 5 1023.1 - 0.0
27/06:00pm 12.4 9.4 6.2 66 2.9 E 11 13 6 7 1022.7 1022.7 0.0
27/05:30pm 14.7 11.1 6.8 59 3.8 E 15 17 8 9 1022.2 - 0.0
27/05:00pm 17.0 13.0 6.8 51 5.0 E 17 20 9 11 1021.8 1021.8 0.0
27/04:30pm 18.9 14.5 6.4 44 6.2 E 19 24 10 13 1021.5 - 0.0
27/04:00pm 20.8 17.0 4.0 33 8.1 E 13 17 7 9 1021.2 1021.2 0.0
27/03:30pm 21.8 18.5 4.8 33 8.4 E 11 17 6 9 1021.0 - 0.0
27/03:00pm 21.6 19.0 4.2 32 8.4 SSE 7 11 4 6 1020.9 1020.9 0.0
27/02:30pm 22.2 19.8 4.3 31 8.8 W 6 7 3 4 1020.9 - 0.0
27/02:00pm 22.2 19.5 5.6 34 8.3 SSE 9 13 5 7 1021.2 1021.2 0.0
27/01:30pm 21.9 19.4 4.9 33 8.4 SE 7 17 4 9 1021.3 - 0.0
27/01:00pm 21.2 18.4 5.1 35 7.9 SSE 9 15 5 8 1021.5 1021.5 0.0
27/12:30pm 21.5 17.9 5.0 34 8.1 E 13 19 7 10 1022.0 - 0.0
27/12:00pm 20.9 18.0 4.5 34 7.9 ESE 9 15 5 8 1022.6 1022.6 0.0
27/11:30am 20.0 16.8 4.9 37 7.4 S 11 17 6 9 1023.3 - 0.0
27/11:00am 20.1 17.4 5.7 39 7.1 S 9 20 5 11 1023.8 1023.8 0.0
27/10:30am 19.1 16.5 6.2 43 6.4 S 9 19 5 10 1024.3 - 0.0
27/10:00am 17.8 16.0 10.9 64 3.7 SW 11 15 6 8 1024.5 1024.5 0.0
27/09:30am 16.7 17.0 11.0 69 3.1 CALM 0 0 0 0 1024.6 - 0.0
27/09:00am 15.4 15.5 11.6 78 2.0 SSW 2 6 1 3 1024.5 1024.5 1.0
27/08:30am 14.5 13.9 11.6 83 1.6 NW 6 7 3 4 1024.1 - 1.0
27/08:00am 12.2 12.6 11.1 93 0.6 CALM 0 0 0 0 1024.0 1024.0 1.0
27/07:30am 9.6 8.9 8.7 94 0.4 W 2 6 1 3 1023.7 - 1.0
27/07:00am 7.0 4.9 5.9 93 0.5 W 6 7 3 4 1023.6 1023.6 1.0
27/06:30am 6.8 4.7 5.7 93 0.5 WSW 6 7 3 4 1023.3 - 1.0
27/06:00am 6.8 5.8 5.4 91 0.6 CALM 0 0 0 0 1022.9 1022.9 1.0
27/05:30am 7.6 5.6 6.2 91 0.6 W 6 7 3 4 1022.7 - 1.0
27/05:00am 8.1 7.3 6.4 89 0.8 CALM 0 0 0 0 1022.5 1022.5 1.0
27/04:30am 9.5 7.9 7.8 89 0.8 W 6 7 3 4 1022.2 - 0.8
27/04:00am 11.5 10.1 9.4 87 1.1 W 7 11 4 6 1022.3 1022.3 0.8
27/03:30am 12.2 10.2 10.3 88 1.0 WNW 11 15 6 8 1022.3 - 0.8
27/03:00am 13.0 11.2 10.7 86 1.2 WNW 11 13 6 7 1022.4 1022.4 0.8
27/02:30am 13.4 11.7 11.1 86 1.2 NW 11 13 6 7 1022.5 - 0.8
27/02:00am 13.8 12.5 11.3 85 1.3 WNW 9 13 5 7 1022.8 1022.8 0.8
27/01:30am 14.3 13.1 11.6 84 1.4 NW 9 13 5 7 1022.8 - 0.8
27/01:00am 14.3 11.6 11.8 85 1.3 NNW 17 20 9 11 1022.9 1022.9 0.8
27/12:30am 15.0 11.8 12.0 82 1.6 WNW 20 30 11 16 1023.3 - 0.4
27/12:00am 14.3 13.1 11.5 83 1.5 WNW 9 13 5 7 1022.9 1022.9 0.4
 
Date/Time
EST
Temp
°C
App
Temp
°C
Dew
Point
Rel
Hum
%
Delta-T
°C
Wind Press
QNH
hPa
Press
MSL
hPa
Rain
since 9 am
mm
Dir
 
Spd
km/h
Gust
km/h
Spd
kts
Gust
kts
26/11:30pm 14.4 12.5 11.9 85 1.3 NW 13 15 7 8 1022.9 - 0.4
26/11:00pm 15.0 13.3 12.3 84 1.5 NW 13 17 7 9 1023.4 1023.4 0.4

Other Formats:

Comma delimited format used in spreadsheet applications
http://www.bom.gov.au/fwo/IDN60801/IDN60801.94573.axf

JavaScript Object Notation format (JSON) in row-major order
http://www.bom.gov.au/fwo/IDN60801/IDN60801.94573.json